Huvudsida
METAR-TAF:

METAR-TAF

Flygplatser :

Capo Bellavista

Tortolì, Italien

latitud: 39-56N, longitud: 009-43E, höjd: 138 m

Aktuellt väderrapport

Denna rapport gjordes för 1 timme och 14 minuter sedan, klockan 02:55 UTC
Vind 9 kt från väst
Temperatur 10°C
Fuktighet 62%
Tryck 1023 hPa
Sikt 10 km eller mer
Inga moln under 1 500 m eller inga cumulonimbus

METAR: LIEB 190255Z 28009KT CAVOK 10/03 Q1023 RMK BKN FEW090 SCT100 QUK / QUL / VIS MAR 20 KM MON INVIS VIS MIN 9999

Tid: 05:09 (04:09 UTC)


TAF: saknas

Aktuella väderrapporter och prognoser från 4000 flygplatser (METAR- och TAF-rapporter).

De tillgängliga stationerna syns som gula och röda prickar på kartan.

För musen över prickarna för att se namnen på stationerna.

Klicka sedan för att få väderrapporter och prognoser.

För att ändra kartan: Klicka på de gröna knapparna med ett svart kors på för att zooma in; den gröna knappen med ett streck på för att zooma ut; eller på de gröna pilarna för angränsande kartor.


METAR-TAF: